createdAt,value
2023-05-05T00:07:01.707Z,17.86
2023-05-05T00:17:06.168Z,17.67
2023-05-05T00:27:09.176Z,17.50
2023-05-05T00:37:13.633Z,17.32
2023-05-05T00:47:16.893Z,16.99
2023-05-05T00:57:21.625Z,16.93
2023-05-05T01:07:37.284Z,16.79
2023-05-05T01:17:46.793Z,16.51
2023-05-05T01:28:02.000Z,16.58
2023-05-05T01:38:10.752Z,16.52
2023-05-05T01:48:16.413Z,16.32
2023-05-05T01:58:23.182Z,16.00
2023-05-05T02:08:27.349Z,15.56
2023-05-05T02:18:35.852Z,15.09
2023-05-05T02:28:43.837Z,14.69
2023-05-05T02:38:54.663Z,14.35
2023-05-05T02:49:02.210Z,14.05
2023-05-05T02:59:15.992Z,13.90
2023-05-05T03:09:31.587Z,13.78
2023-05-05T03:19:38.615Z,13.61
2023-05-05T03:29:41.642Z,13.52
2023-05-05T03:39:50.543Z,13.48
2023-05-05T03:49:53.768Z,13.33
2023-05-05T03:59:58.333Z,13.26
2023-05-05T04:10:02.923Z,13.16
2023-05-05T04:20:09.469Z,13.04
2023-05-05T04:30:13.318Z,12.99
2023-05-05T04:40:18.937Z,12.96
2023-05-05T04:50:22.075Z,12.89
2023-05-05T05:00:27.638Z,12.91
2023-05-05T05:10:30.643Z,13.03
2023-05-05T05:20:35.248Z,13.09
2023-05-05T05:30:38.510Z,13.22
2023-05-05T05:40:44.724Z,13.52
2023-05-05T05:50:48.072Z,13.95
2023-05-05T06:00:52.563Z,14.50
2023-05-05T06:10:55.835Z,15.03
2023-05-05T06:21:02.146Z,15.62
2023-05-05T06:31:08.242Z,16.29
2023-05-05T06:41:18.153Z,16.56
2023-05-05T06:51:28.030Z,16.84
2023-05-05T07:01:36.176Z,17.15
2023-05-05T07:11:42.701Z,17.46
2023-05-05T07:21:53.184Z,18.18
2023-05-05T07:31:57.876Z,18.47
2023-05-05T07:42:09.394Z,18.84
2023-05-05T07:52:14.118Z,19.34
2023-05-05T08:02:24.469Z,19.99
2023-05-05T08:12:30.924Z,20.29
2023-05-05T08:22:42.800Z,20.19
2023-05-05T08:32:47.203Z,21.14
2023-05-05T08:42:57.653Z,21.55
2023-05-05T08:53:10.595Z,21.33
2023-05-05T09:03:17.070Z,21.09
2023-05-05T09:13:20.567Z,21.42
2023-05-05T09:23:31.466Z,21.55
2023-05-05T09:33:37.722Z,21.09
2023-05-05T09:43:53.133Z,21.17
2023-05-05T09:53:56.781Z,21.10
2023-05-05T10:04:04.166Z,20.47
2023-05-05T10:14:11.841Z,19.39
2023-05-05T10:24:27.161Z,18.92
2023-05-05T10:34:38.928Z,18.97
2023-05-05T10:44:44.021Z,18.26
2023-05-05T10:54:51.281Z,17.63
2023-05-05T11:05:10.257Z,17.10
2023-05-05T11:15:37.995Z,16.84
2023-05-05T11:25:51.427Z,16.88
2023-05-05T11:35:57.988Z,16.84
2023-05-05T11:46:31.687Z,16.67
2023-05-05T11:56:50.872Z,16.65
2023-05-05T12:06:55.842Z,16.49
2023-05-05T12:17:01.413Z,15.98
2023-05-05T12:27:13.496Z,15.80
2023-05-05T12:37:19.207Z,15.61
2023-05-05T12:47:32.957Z,15.72
2023-05-05T12:57:36.622Z,16.22
2023-05-05T13:07:52.762Z,16.17
2023-05-05T13:18:01.145Z,15.80
2023-05-05T13:28:06.284Z,15.76
2023-05-05T13:38:09.324Z,15.30
2023-05-05T13:48:13.914Z,14.94
2023-05-05T13:58:20.010Z,14.98
2023-05-05T14:08:31.526Z,15.24
2023-05-05T14:18:37.634Z,15.24
2023-05-05T14:28:48.311Z,15.40
2023-05-05T14:38:52.793Z,15.17
2023-05-05T14:49:03.366Z,15.11
2023-05-05T14:59:09.927Z,15.16
2023-05-05T15:09:20.499Z,15.89
2023-05-05T15:19:26.672Z,16.14
2023-05-05T15:29:35.648Z,16.17
2023-05-05T15:39:44.588Z,16.14
2023-05-05T15:49:51.782Z,15.93
2023-05-05T16:00:03.635Z,16.41
2023-05-05T16:10:12.231Z,16.63
2023-05-05T16:20:15.285Z,16.52
2023-05-05T16:30:26.484Z,16.75
2023-05-05T16:40:32.617Z,16.40
2023-05-05T16:50:43.681Z,16.00
2023-05-05T17:00:49.565Z,15.86
2023-05-05T17:11:03.280Z,15.84
2023-05-05T17:21:06.934Z,15.75
2023-05-05T17:31:14.849Z,15.89
2023-05-05T17:41:27.147Z,15.93
2023-05-05T17:51:31.751Z,15.84
2023-05-05T18:01:38.121Z,15.68
2023-05-05T18:11:49.721Z,15.61
2023-05-05T18:21:55.485Z,15.46
2023-05-05T18:32:07.660Z,15.44
2023-05-05T18:42:10.718Z,15.41
2023-05-05T18:52:22.904Z,15.08
2023-05-05T19:02:27.383Z,14.79
2023-05-05T19:12:31.865Z,14.59
2023-05-05T19:22:35.019Z,14.32
2023-05-05T19:32:39.476Z,14.11
2023-05-05T19:42:42.608Z,13.77
2023-05-05T19:52:47.166Z,13.66
2023-05-05T20:02:50.362Z,13.50
2023-05-05T20:12:54.933Z,13.38
2023-05-05T20:23:00.900Z,13.34
2023-05-05T20:33:05.613Z,13.31
2023-05-05T20:43:08.714Z,13.22
2023-05-05T20:53:15.029Z,13.02
2023-05-05T21:03:18.130Z,13.03
2023-05-05T21:13:22.957Z,13.13
2023-05-05T21:23:26.240Z,13.20
2023-05-05T21:33:30.662Z,13.30
2023-05-05T21:43:33.683Z,13.27
2023-05-05T21:53:39.053Z,13.17
2023-05-05T22:03:43.680Z,13.27
2023-05-05T22:13:48.552Z,13.20
2023-05-05T22:23:51.474Z,13.09
2023-05-05T22:33:55.885Z,13.04
2023-05-05T22:43:58.851Z,13.00
2023-05-05T22:54:03.261Z,12.97
2023-05-05T23:04:06.564Z,12.88
2023-05-05T23:14:11.007Z,12.80
2023-05-05T23:24:14.065Z,12.79
2023-05-05T23:34:18.484Z,12.72
2023-05-05T23:44:21.504Z,12.52
2023-05-05T23:54:26.166Z,12.42
